Time;durP1;ratioP1;P1;durP2;ratioP2;P2;SDS_P1;SDS_P2;PMS_P1;PMS_P2;Temp;Humidity;BMP_temperature;BMP_pressure;BME280_temperature;BME280_humidity;BME280_pressure;Samples;Min_cycle;Max_cycle;Signal;HPM_P1;HPM_P2
2022/08/19 00:00:50;;;;;;;16.47;14.67;;;;;;;18.92;100.00;95522.28;5049337;28;24848;-73
2022/08/19 00:03:17;;;;;;;16.77;14.60;;;;;;;18.93;100.00;95528.34;5049184;28;24529;-75
2022/08/19 00:05:44;;;;;;;15.25;13.77;;;;;;;18.87;100.00;95519.25;5052027;28;24435;-73
2022/08/19 00:08:10;;;;;;;17.85;14.65;;;;;;;18.84;100.00;95516.97;5051599;28;24443;-73
2022/08/19 00:10:37;;;;;;;16.50;14.10;;;;;;;18.79;100.00;95516.59;5049766;28;24554;-74
2022/08/19 00:13:05;;;;;;;16.13;14.43;;;;;;;18.80;100.00;95511.19;5044632;28;24439;-75
2022/08/19 00:15:31;;;;;;;15.55;13.48;;;;;;;18.79;100.00;95512.16;5046158;28;24431;-74
2022/08/19 00:17:58;;;;;;;15.55;13.95;;;;;;;18.83;100.00;95520.53;5047956;28;24821;-74
2022/08/19 00:20:25;;;;;;;15.80;13.93;;;;;;;18.77;100.00;95519.38;5044818;28;24438;-74
2022/08/19 00:22:52;;;;;;;15.02;13.35;;;;;;;18.75;100.00;95517.88;5044925;28;24530;-74
2022/08/19 00:25:19;;;;;;;18.25;14.10;;;;;;;18.75;100.00;95513.44;5051198;28;24497;-75
2022/08/19 00:27:45;;;;;;;19.98;13.95;;;;;;;18.73;100.00;95510.16;5051359;28;24931;-73
2022/08/19 00:30:13;;;;;;;15.48;13.85;;;;;;;18.71;100.00;95506.03;5048150;28;24443;-75
2022/08/19 00:32:40;;;;;;;16.38;14.27;;;;;;;18.64;100.00;95484.81;5050138;28;24431;-74
2022/08/19 00:35:09;;;;;;;15.80;14.20;;;;;;;18.65;100.00;95488.25;5047710;28;24447;-74
2022/08/19 00:37:35;;;;;;;15.13;13.60;;;;;;;18.60;100.00;95486.91;5051344;28;24463;-74
2022/08/19 00:40:04;;;;;;;17.42;13.70;;;;;;;18.61;100.00;95479.84;5046544;28;24440;-74
2022/08/19 00:42:30;;;;;;;16.95;14.43;;;;;;;18.63;100.00;95481.34;5049887;28;24435;-74
2022/08/19 00:44:57;;;;;;;19.33;16.20;;;;;;;18.89;100.00;95483.22;5045875;28;25011;-74
2022/08/19 00:47:25;;;;;;;16.98;15.18;;;;;;;18.78;100.00;95472.97;5051120;28;24451;-74
2022/08/19 00:49:56;;;;;;;24.98;16.08;;;;;;;18.70;100.00;95475.50;5045290;28;24439;-74
2022/08/19 00:52:28;;;;;;;20.92;16.73;;;;;;;18.72;100.00;95482.25;5048474;28;24447;-74
2022/08/19 00:54:55;;;;;;;17.48;15.32;;;;;;;18.66;100.00;95482.88;5048246;28;24440;-74
2022/08/19 00:57:27;;;;;;;19.63;16.85;;;;;;;18.72;100.00;95500.63;5048640;28;24431;-74
2022/08/19 00:59:56;;;;;;;19.20;14.95;;;;;;;18.76;100.00;95502.00;5045935;28;24435;-74
2022/08/19 01:02:24;;;;;;;16.17;14.47;;;;;;;18.78;100.00;95507.91;5046914;28;24523;-74
2022/08/19 01:04:51;;;;;;;18.80;16.80;;;;;;;18.73;100.00;95509.34;5045624;28;24446;-74
2022/08/19 01:07:18;;;;;;;17.67;15.40;;;;;;;18.68;100.00;95498.44;5047137;28;24517;-73
2022/08/19 01:09:44;;;;;;;17.58;15.45;;;;;;;18.66;100.00;95503.03;5042117;28;24535;-73
2022/08/19 01:12:11;;;;;;;18.47;15.80;;;;;;;18.68;100.00;95501.06;5050431;28;24435;-74
2022/08/19 01:14:40;;;;;;;18.70;15.25;;;;;;;18.63;100.00;95491.84;5045006;28;24444;-74
2022/08/19 01:17:08;;;;;;;18.67;15.60;;;;;;;18.65;100.00;95493.50;5048053;28;24526;-74
2022/08/19 01:19:38;;;;;;;19.80;16.38;;;;;;;18.70;100.00;95493.88;5040872;28;24443;-74
2022/08/19 01:22:11;;;;;;;20.50;16.80;;;;;;;18.79;100.00;95495.59;5047536;28;24489;-74
2022/08/19 01:24:39;;;;;;;18.25;16.27;;;;;;;18.61;100.00;95491.19;5044869;28;24846;-74
2022/08/19 01:27:07;;;;;;;19.33;16.27;;;;;;;18.66;100.00;95490.72;5044448;28;24470;-74
2022/08/19 01:29:34;;;;;;;21.27;16.90;;;;;;;18.63;100.00;95483.97;5050255;28;24427;-74
2022/08/19 01:32:02;;;;;;;18.77;16.80;;;;;;;18.56;100.00;95487.38;5048585;28;24497;-74
2022/08/19 01:34:29;;;;;;;18.58;15.95;;;;;;;18.53;100.00;95483.25;5040866;28;24439;-74
2022/08/19 01:36:55;;;;;;;19.17;15.73;;;;;;;18.50;100.00;95478.31;5049379;28;24991;-74
2022/08/19 01:39:24;;;;;;;17.42;15.23;;;;;;;18.50;100.00;95483.56;5048081;28;24450;-76
2022/08/19 01:41:54;;;;;;;17.52;15.25;;;;;;;18.53;100.00;95485.03;5050089;28;24431;-74
2022/08/19 01:44:23;;;;;;;17.95;16.15;;;;;;;18.48;100.00;95495.19;5038091;28;24840;-74
2022/08/19 01:46:52;;;;;;;20.02;16.00;;;;;;;18.47;100.00;95493.53;5046876;28;25031;-76
2022/08/19 01:49:21;;;;;;;18.67;16.87;;;;;;;18.48;100.00;95495.19;5047283;28;24439;-74
2022/08/19 01:51:49;;;;;;;21.30;17.00;;;;;;;18.43;100.00;95479.06;5047529;28;24999;-74
2022/08/19 01:54:17;;;;;;;18.40;16.45;;;;;;;18.43;100.00;95479.06;5049500;28;24464;-74
2022/08/19 01:56:44;;;;;;;23.60;16.70;;;;;;;18.34;100.00;95471.13;5049635;28;24446;-75
2022/08/19 01:59:16;;;;;;;18.80;16.90;;;;;;;18.36;100.00;95477.06;5046303;28;24435;-74
2022/08/19 02:01:45;;;;;;;17.10;15.32;;;;;;;18.28;100.00;95473.53;5048469;28;22338;-74
2022/08/19 02:04:11;;;;;;;18.10;16.02;;;;;;;18.36;100.00;95473.63;5048550;28;24447;-74
2022/08/19 02:06:39;;;;;;;20.98;16.75;;;;;;;18.32;100.00;95477.53;5045805;28;24801;-73
2022/08/19 02:09:08;;;;;;;22.88;16.85;;;;;;;18.31;100.00;95478.47;5047190;28;25024;-73
2022/08/19 02:11:37;;;;;;;19.65;16.98;;;;;;;18.28;100.00;95487.47;5048022;28;24516;-74
2022/08/19 02:14:06;;;;;;;21.90;16.95;;;;;;;18.27;100.00;95479.75;5040397;28;25050;-74
2022/08/19 02:16:35;;;;;;;21.00;16.60;;;;;;;18.24;100.00;95478.25;5049547;28;24435;-74
2022/08/19 02:19:02;;;;;;;17.35;15.55;;;;;;;18.26;100.00;95488.59;5042768;28;24439;-74
2022/08/19 02:21:30;;;;;;;19.30;16.13;;;;;;;18.23;100.00;95483.66;5049272;28;25015;-76
2022/08/19 02:23:57;;;;;;;19.85;15.75;;;;;;;18.23;100.00;95483.66;5045995;28;24474;-74
2022/08/19 02:26:25;;;;;;;20.70;17.35;;;;;;;18.18;100.00;95484.09;5048444;28;24980;-74
2022/08/19 02:28:51;;;;;;;19.08;17.08;;;;;;;18.16;100.00;95483.41;5048242;28;24886;-74
2022/08/19 02:31:21;;;;;;;18.52;16.45;;;;;;;18.18;100.00;95473.63;5043768;28;25020;-74
2022/08/19 02:33:50;;;;;;;19.25;16.75;;;;;;;18.16;100.00;95474.72;5048131;28;24435;-74
2022/08/19 02:36:17;;;;;;;20.25;18.23;;;;;;;18.21;100.00;95475.94;5041444;28;24431;-75
2022/08/19 02:38:44;;;;;;;18.70;16.88;;;;;;;18.19;100.00;95474.44;5041735;28;24436;-75
2022/08/19 02:41:14;;;;;;;23.40;18.17;;;;;;;18.12;100.00;95475.03;5042787;28;24446;-75
2022/08/19 02:43:40;;;;;;;24.10;18.73;;;;;;;18.12;100.00;95469.78;5048703;28;24435;-75
2022/08/19 02:46:13;;;;;;;20.00;17.85;;;;;;;18.12;100.00;95463.72;5045191;28;24820;-75
2022/08/19 02:48:39;;;;;;;20.80;18.27;;;;;;;18.16;100.00;95469.50;5037078;28;24479;-75
2022/08/19 02:51:07;;;;;;;21.83;17.42;;;;;;;18.15;100.00;95473.91;5045126;28;24442;-75
2022/08/19 02:53:34;;;;;;;20.27;18.10;;;;;;;18.20;100.00;95466.41;5043465;28;24436;-75
2022/08/19 02:56:00;;;;;;;19.70;17.60;;;;;;;18.14;100.00;95467.84;5046472;28;24996;-75
2022/08/19 02:58:27;;;;;;;21.48;16.85;;;;;;;18.03;100.00;95467.25;5043481;28;24807;-74
2022/08/19 03:00:56;;;;;;;21.10;18.83;;;;;;;18.04;100.00;95480.19;5044717;28;24473;-75
2022/08/19 03:03:23;;;;;;;22.55;18.63;;;;;;;18.01;100.00;95477.06;5048135;28;24447;-74
2022/08/19 03:05:50;;;;;;;24.65;20.95;;;;;;;18.09;100.00;95479.75;5046375;28;24448;-74
2022/08/19 03:08:17;;;;;;;23.55;20.42;;;;;;;18.00;100.00;95476.22;5048390;28;24996;-74
2022/08/19 03:10:46;;;;;;;26.73;20.25;;;;;;;17.99;100.00;95479.00;5045921;28;25099;-74
2022/08/19 03:13:14;;;;;;;24.35;20.98;;;;;;;17.95;100.00;95486.34;5049297;28;24440;-74
2022/08/19 03:15:42;;;;;;;24.57;20.53;;;;;;;17.93;100.00;95484.84;5046182;28;24479;-74
2022/08/19 03:18:09;;;;;;;22.08;19.77;;;;;;;17.93;100.00;95485.66;5037919;28;25011;-74
2022/08/19 03:20:41;;;;;;;25.67;21.42;;;;;;;17.98;100.00;95491.25;5043756;28;24864;-74
2022/08/19 03:23:08;;;;;;;23.85;21.10;;;;;;;17.95;100.00;95485.50;5039738;28;24435;-74
2022/08/19 03:25:40;;;;;;;22.77;20.27;;;;;;;17.91;100.00;95485.00;5043907;28;24431;-74
2022/08/19 03:28:07;;;;;;;22.65;20.42;;;;;;;17.86;100.00;95474.13;5038355;28;24487;-74
2022/08/19 03:30:34;;;;;;;25.48;19.45;;;;;;;17.86;100.00;95469.69;5045846;28;24431;-74
2022/08/19 03:33:01;;;;;;;26.70;19.77;;;;;;;17.81;100.00;95464.09;5046819;28;24474;-74
2022/08/19 03:35:28;;;;;;;25.77;20.65;;;;;;;17.76;100.00;95466.34;5046772;28;24446;-74
2022/08/19 03:37:56;;;;;;;25.45;19.98;;;;;;;17.80;100.00;95472.13;5044759;28;24786;-74
2022/08/19 03:40:22;;;;;;;22.58;20.20;;;;;;;17.75;100.00;95471.69;5046291;28;24829;-74
2022/08/19 03:42:50;;;;;;;23.17;19.05;;;;;;;17.69;100.00;95472.25;5046759;28;24438;-74
2022/08/19 03:45:17;;;;;;;23.45;20.65;;;;;;;17.66;100.00;95468.97;5047959;28;25012;-74
2022/08/19 03:47:43;;;;;;;23.98;21.35;;;;;;;17.70;100.00;95469.50;5051665;28;25020;-74
2022/08/19 03:50:10;;;;;;;26.95;21.98;;;;;;;17.65;100.00;95459.47;5051756;28;24446;-74
2022/08/19 03:52:37;;;;;;;28.65;22.77;;;;;;;17.69;100.00;95461.78;5050104;28;24489;-74
2022/08/19 03:55:04;;;;;;;24.70;21.23;;;;;;;17.64;100.00;95465.66;5049992;28;24492;-74
2022/08/19 03:57:32;;;;;;;23.30;19.98;;;;;;;17.58;100.00;95474.13;5052350;28;24472;-74
2022/08/19 04:00:00;;;;;;;24.75;21.60;;;;;;;17.62;100.00;95479.91;5045767;28;24536;-74
2022/08/19 04:02:26;;;;;;;23.98;21.00;;;;;;;17.64;100.00;95488.41;5051739;28;24431;-74
2022/08/19 04:04:55;;;;;;;26.00;21.05;;;;;;;17.58;100.00;95482.00;5047871;28;24462;-73
2022/08/19 04:07:21;;;;;;;25.20;22.38;;;;;;;17.64;100.00;95477.94;5043793;28;24525;-73
2022/08/19 04:09:48;;;;;;;25.10;22.47;;;;;;;17.59;100.00;95478.38;5045548;28;25008;-76
2022/08/19 04:12:15;;;;;;;25.75;22.17;;;;;;;17.60;100.00;95473.97;5039084;28;24538;-75
2022/08/19 04:14:42;;;;;;;31.98;23.95;;;;;;;17.66;100.00;95479.47;5045810;28;24537;-75
2022/08/19 04:17:10;;;;;;;25.65;23.00;;;;;;;17.63;100.00;95473.69;5049193;28;24443;-75
2022/08/19 04:19:38;;;;;;;29.30;22.70;;;;;;;17.62;100.00;95475.47;5049859;28;24534;-76
2022/08/19 04:22:05;;;;;;;25.90;23.23;;;;;;;17.64;100.00;95473.53;5045983;28;24519;-76
2022/08/19 04:24:32;;;;;;;26.43;22.90;;;;;;;17.63;100.00;95479.75;5051305;28;24447;-76
2022/08/19 04:27:00;;;;;;;25.15;22.50;;;;;;;17.65;100.00;95490.91;5052440;28;24431;-76
2022/08/19 04:29:27;;;;;;;24.17;21.57;;;;;;;17.62;100.00;95499.06;5051279;28;24465;-76
2022/08/19 04:31:55;;;;;;;24.58;21.92;;;;;;;17.59;100.00;95501.97;5045932;28;24431;-76
2022/08/19 04:34:28;;;;;;;24.40;22.00;;;;;;;17.66;100.00;95497.78;5044459;28;24481;-76
2022/08/19 04:36:56;;;;;;;22.83;20.83;;;;;;;17.80;100.00;95488.66;5048990;28;24848;-76
2022/08/19 04:42:38;;;;;;;24.92;22.30;;;;;;;17.77;100.00;95496.78;5044830;28;24520;-76
2022/08/19 04:44:58;;;;;;;27.85;21.17;;;;;;;17.69;100.00;95495.84;5049167;28;24454;-76
2022/08/19 04:47:24;;;;;;;26.10;20.58;;;;;;;17.66;100.00;95496.97;5035334;28;24470;-76
2022/08/19 04:49:52;;;;;;;22.77;20.20;;;;;;;17.63;100.00;95495.47;5039342;28;24432;-76
2022/08/19 04:52:19;;;;;;;22.40;19.13;;;;;;;17.65;100.00;95493.53;5051856;28;24440;-76
2022/08/19 04:54:45;;;;;;;24.73;21.33;;;;;;;17.61;100.00;95486.94;5051569;28;24435;-76
2022/08/19 04:57:12;;;;;;;23.73;21.23;;;;;;;17.62;100.00;95478.09;5048910;28;24443;-76
2022/08/19 04:59:39;;;;;;;24.60;20.95;;;;;;;17.63;100.00;95479.75;5048816;28;24439;-76
2022/08/19 05:02:08;;;;;;;25.08;21.00;;;;;;;17.63;100.00;95486.78;5049379;28;24805;-76
2022/08/19 05:04:37;;;;;;;23.80;21.30;;;;;;;17.62;100.00;95491.19;5048076;28;24439;-76
2022/08/19 05:07:06;;;;;;;22.35;19.95;;;;;;;17.66;100.00;95484.69;5051485;28;24446;-76
2022/08/19 05:09:32;;;;;;;24.33;21.40;;;;;;;17.75;100.00;95495.25;5049004;28;24455;-76
2022/08/19 05:11:59;;;;;;;25.13;20.55;;;;;;;17.78;100.00;95503.69;5048804;28;24489;-76
2022/08/19 05:14:26;;;;;;;26.70;22.45;;;;;;;17.83;100.00;95519.75;5041537;28;24447;-76
2022/08/19 05:16:52;;;;;;;26.70;23.17;;;;;;;17.78;100.00;95529.88;5048775;28;24438;-74
2022/08/19 05:24:57;;;;;;;25.35;21.13;;;;;;;17.69;100.00;95543.81;5044902;28;24455;-78
2022/08/19 05:27:23;;;;;;;23.95;21.42;;;;;;;17.63;100.00;95539.97;5047298;28;24654;-76
2022/08/19 05:29:50;;;;;;;26.38;21.77;;;;;;;17.74;100.00;95557.28;5049683;28;24995;-74
2022/08/19 05:32:16;;;;;;;22.73;19.75;;;;;;;17.82;100.00;95561.84;5046142;28;24440;-74
2022/08/19 05:34:43;;;;;;;25.67;21.10;;;;;;;17.79;100.00;95562.94;5045414;28;24980;-74
2022/08/19 05:37:11;;;;;;;24.55;21.35;;;;;;;17.81;100.00;95563.63;5049824;28;24789;-75
2022/08/19 05:39:40;;;;;;;27.70;22.75;;;;;;;17.79;100.00;95568.19;5048624;28;24467;-74
2022/08/19 05:42:09;;;;;;;23.25;20.85;;;;;;;17.83;100.00;95573.97;5046373;28;24463;-76
2022/08/19 05:44:39;;;;;;;22.17;19.52;;;;;;;17.86;100.00;95568.44;5045665;28;24439;-77
2022/08/19 05:47:08;;;;;;;27.30;21.85;;;;;;;17.76;100.00;95565.88;5046596;28;24432;-76
2022/08/19 05:49:36;;;;;;;21.80;19.50;;;;;;;17.80;100.00;95567.25;5043059;28;24463;-75
2022/08/19 05:52:04;;;;;;;22.02;19.70;;;;;;;17.84;100.00;95568.59;5041189;28;24848;-78
2022/08/19 05:54:31;;;;;;;26.73;22.08;;;;;;;17.80;100.00;95566.41;5049860;28;24447;-79
2022/08/19 05:56:59;;;;;;;23.05;20.63;;;;;;;17.85;100.00;95564.16;5059105;28;24454;-80
2022/08/19 05:59:25;;;;;;;27.40;22.58;;;;;;;17.79;100.00;95562.94;5052295;28;24459;-81
2022/08/19 06:01:54;;;;;;;24.67;22.08;;;;;;;17.74;100.00;95570.41;5049802;28;24439;-77
2022/08/19 06:04:21;;;;;;;26.75;22.50;;;;;;;17.86;100.00;95578.91;5048287;28;24439;-75
2022/08/19 06:06:48;;;;;;;26.77;21.63;;;;;;;17.97;100.00;95580.50;5045981;28;24443;-74
2022/08/19 06:09:15;;;;;;;26.98;22.15;;;;;;;18.12;100.00;95576.41;5043228;28;24462;-76
2022/08/19 06:11:44;;;;;;;27.63;22.90;;;;;;;17.93;100.00;95569.50;5050599;28;24439;-75
2022/08/19 06:14:14;;;;;;;25.85;21.70;;;;;;;17.93;100.00;95576.53;5041961;28;24498;-76
2022/08/19 06:16:42;;;;;;;24.10;21.48;;;;;;;17.81;100.00;95574.13;5047085;28;24435;-74
2022/08/19 06:19:11;;;;;;;23.38;21.00;;;;;;;17.88;100.00;95575.19;5047284;28;24995;-76
2022/08/19 06:21:40;;;;;;;24.83;21.52;;;;;;;17.84;100.00;95568.59;5049129;28;24809;-75
2022/08/19 06:24:08;;;;;;;23.38;20.88;;;;;;;17.88;100.00;95572.56;5041443;28;25082;-75
2022/08/19 06:26:35;;;;;;;24.90;21.60;;;;;;;17.82;100.00;95567.06;5046013;28;24621;-74
2022/08/19 06:29:02;;;;;;;22.67;20.20;;;;;;;17.86;100.00;95573.66;5041702;28;24498;-74
2022/08/19 06:31:33;;;;;;;26.38;22.27;;;;;;;17.89;100.00;95576.00;5048491;28;24523;-74
2022/08/19 06:34:01;;;;;;;23.48;21.00;;;;;;;18.00;100.00;95573.19;5041513;28;24451;-75
2022/08/19 06:36:31;;;;;;;21.40;19.20;;;;;;;18.02;100.00;95570.41;5050344;28;24546;-76
2022/08/19 06:38:58;;;;;;;26.85;21.60;;;;;;;17.99;100.00;95563.69;5043552;28;25011;-73
2022/08/19 06:41:26;;;;;;;23.52;21.02;;;;;;;17.97;100.00;95573.47;5048159;28;24470;-74
2022/08/19 06:43:52;;;;;;;21.27;19.05;;;;;;;17.99;100.00;95563.69;5044449;28;24447;-72
2022/08/19 06:46:19;;;;;;;22.25;19.85;;;;;;;18.12;100.00;95561.50;5047799;28;24442;-73
2022/08/19 06:48:47;;;;;;;24.42;20.33;;;;;;;18.11;100.00;95552.00;5043911;28;24447;-75
2022/08/19 06:51:18;;;;;;;25.35;20.13;;;;;;;18.15;100.00;95563.03;5047329;28;24898;-75
2022/08/19 06:53:46;;;;;;;22.65;20.02;;;;;;;18.14;100.00;95562.22;5045875;28;24984;-76
2022/08/19 06:56:12;;;;;;;23.33;20.80;;;;;;;18.23;100.00;95572.78;5046825;28;24821;-74
2022/08/19 06:58:39;;;;;;;21.45;19.25;;;;;;;18.22;100.00;95571.13;5044983;28;24458;-74
2022/08/19 07:01:06;;;;;;;20.02;18.08;;;;;;;18.24;100.00;95569.16;5049421;28;24446;-75
2022/08/19 07:03:34;;;;;;;21.25;19.08;;;;;;;18.36;100.00;95574.06;5051427;28;24454;-79
2022/08/19 07:06:05;;;;;;;22.08;18.50;;;;;;;18.39;100.00;95572.91;5040033;28;24435;-76
2022/08/19 07:08:33;;;;;;;23.17;18.02;;;;;;;18.34;100.00;95573.38;5049241;28;24455;-74
2022/08/19 07:11:00;;;;;;;21.73;18.48;;;;;;;18.40;100.00;95581.63;5049644;28;24546;-75
2022/08/19 07:13:26;;;;;;;20.55;17.75;;;;;;;18.42;100.00;95580.50;5044021;28;24451;-75
2022/08/19 07:15:53;;;;;;;19.77;17.77;;;;;;;18.51;100.00;95581.41;5042257;28;24837;-75
2022/08/19 07:18:21;;;;;;;24.07;18.53;;;;;;;18.45;100.00;95574.97;5048068;28;24440;-74
2022/08/19 07:20:48;;;;;;;21.17;17.48;;;;;;;18.53;100.00;95577.66;5051377;28;24435;-74
2022/08/19 07:23:16;;;;;;;19.88;16.80;;;;;;;18.56;100.00;95584.41;5045820;28;24459;-75
2022/08/19 07:25:43;;;;;;;20.05;17.58;;;;;;;18.53;100.00;95577.66;5050811;28;24442;-75
2022/08/19 07:28:10;;;;;;;20.15;17.63;;;;;;;18.47;100.00;95586.13;5045797;28;24539;-75
2022/08/19 07:30:38;;;;;;;20.08;17.98;;;;;;;18.43;100.00;95587.41;5047338;28;24446;-74
2022/08/19 07:33:05;;;;;;;20.08;16.55;;;;;;;18.56;100.00;95584.41;5052870;28;24509;-75
2022/08/19 07:35:33;;;;;;;21.85;17.85;;;;;;;18.40;100.00;95597.38;5052395;28;25075;-75
2022/08/19 07:38:02;;;;;;;18.85;16.00;;;;;;;18.49;100.00;95593.84;5044505;28;24448;-76
2022/08/19 07:40:31;;;;;;;21.95;17.35;;;;;;;18.46;100.00;95594.97;5051603;28;24442;-75
2022/08/19 07:42:57;;;;;;;18.37;16.50;;;;;;;18.49;100.00;95597.28;5052654;28;24457;-74
2022/08/19 07:45:24;;;;;;;18.45;16.55;;;;;;;18.60;100.00;95589.19;5050161;28;24849;-75
2022/08/19 07:47:52;;;;;;;18.70;16.55;;;;;;;18.65;100.00;95591.38;5049094;28;24977;-75
2022/08/19 07:50:19;;;;;;;19.25;15.50;;;;;;;18.83;100.00;95600.06;5052381;28;24447;-76
2022/08/19 07:52:46;;;;;;;19.97;16.50;;;;;;;18.85;100.00;95603.38;5044894;28;24532;-75
2022/08/19 07:55:13;;;;;;;21.70;16.38;;;;;;;18.83;100.00;95601.88;5050076;28;24440;-76
2022/08/19 07:57:41;;;;;;;17.98;15.52;;;;;;;18.94;100.00;95611.31;5050297;28;24451;-74
2022/08/19 08:00:08;;;;;;;19.30;16.45;;;;;;;18.95;100.00;95607.72;5048716;28;24534;-76
2022/08/19 08:02:35;;;;;;;17.27;15.65;;;;;;;19.11;100.00;95592.13;5052717;28;24912;-75
2022/08/19 08:10:41;;;;;;;20.38;14.50;;;;;;;19.55;100.00;95586.81;5045102;28;25118;-74
2022/08/19 08:13:09;;;;;;;18.58;14.50;;;;;;;19.55;100.00;95592.88;5048718;28;24439;-76
2022/08/19 08:15:38;;;;;;;17.33;14.57;;;;;;;19.60;100.00;95597.66;5052192;28;24431;-74
2022/08/19 08:18:04;;;;;;;17.17;14.97;;;;;;;19.61;100.00;95580.91;5040101;28;24487;-74
2022/08/19 08:20:31;;;;;;;16.80;14.95;;;;;;;19.61;100.00;95593.22;5045892;28;24435;-74
2022/08/19 08:25:41;;;;;;;16.90;13.48;;;;;;;19.52;100.00;95602.88;5046050;28;24418;-76
2022/08/19 08:28:10;;;;;;;14.60;12.38;;;;;;;19.68;100.00;95608.25;5038757;28;24439;-77
2022/08/19 08:30:39;;;;;;;20.52;12.65;;;;;;;19.74;100.00;95606.81;5047761;28;24463;-76
2022/08/19 08:33:06;;;;;;;14.23;12.63;;;;;;;19.77;100.00;95609.94;5051501;28;24447;-76
2022/08/19 08:35:33;;;;;;;16.90;13.48;;;;;;;19.82;100.00;95612.91;5049350;28;24531;-75
2022/08/19 08:37:59;;;;;;;15.43;12.75;;;;;;;19.81;100.00;95613.91;5051743;28;24852;-76
2022/08/19 08:40:30;;;;;;;13.82;12.02;;;;;;;19.79;100.00;95613.22;5045069;28;24816;-75
2022/08/19 08:43:04;;;;;;;14.63;13.15;;;;;;;19.66;100.00;95618.09;5048633;28;24443;-75
2022/08/19 08:45:35;;;;;;;14.63;12.02;;;;;;;19.78;100.00;95616.84;5034993;28;24448;-76
2022/08/19 08:48:11;;;;;;;14.18;12.77;;;;;;;19.81;100.00;95621.78;5036412;28;24806;-76
2022/08/19 08:50:44;;;;;;;17.83;12.68;;;;;;;19.93;100.00;95621.50;5046637;28;24458;-74
2022/08/19 08:53:13;;;;;;;13.27;11.65;;;;;;;19.82;100.00;95622.63;5043040;28;24434;-75
2022/08/19 08:55:42;;;;;;;14.65;11.77;;;;;;;19.81;100.00;95615.72;5045097;28;25179;-75
2022/08/19 08:58:15;;;;;;;12.25;10.85;;;;;;;19.80;100.00;95625.41;5049814;28;24458;-75
2022/08/19 09:00:46;;;;;;;13.20;11.07;;;;;;;19.97;100.00;95614.97;5038244;28;24440;-75
2022/08/19 09:03:19;;;;;;;12.73;11.43;;;;;;;19.82;100.00;95614.72;5042015;28;24450;-75
2022/08/19 09:05:52;;;;;;;15.80;12.00;;;;;;;19.72;100.00;95622.72;5045301;28;25039;-75
2022/08/19 09:08:30;;;;;;;14.93;11.67;;;;;;;19.83;100.00;95619.00;5038968;28;24436;-75
2022/08/19 09:10:57;;;;;;;12.88;10.80;;;;;;;20.01;100.00;95624.19;5051487;28;24424;-75
2022/08/19 09:13:34;;;;;;;13.05;11.70;;;;;;;20.15;100.00;95618.31;5042649;28;24498;-75
2022/08/19 09:16:07;;;;;;;14.38;11.45;;;;;;;20.18;100.00;95615.38;5041383;28;24473;-75
2022/08/19 09:18:42;;;;;;;14.00;11.30;;;;;;;20.27;100.00;95621.47;5041667;28;24427;-75
2022/08/19 09:21:09;;;;;;;17.48;12.18;;;;;;;20.02;100.00;95628.44;5042700;28;24493;-75
2022/08/19 09:23:36;;;;;;;12.88;9.98;;;;;;;20.13;100.00;95633.41;5034901;28;24525;-74
2022/08/19 09:26:08;;;;;;;14.00;10.80;;;;;;;20.20;100.00;95631.81;5039964;28;24798;-75
2022/08/19 09:28:35;;;;;;;12.32;11.13;;;;;;;20.21;100.00;95636.09;5034735;28;24509;-75
2022/08/19 09:31:02;;;;;;;13.70;12.02;;;;;;;20.20;100.00;95641.50;5048323;28;24439;-73
2022/08/19 09:33:30;;;;;;;13.75;12.25;;;;;;;20.16;100.00;95634.91;5047858;28;24786;-75
2022/08/19 09:36:04;;;;;;;20.13;13.05;;;;;;;19.92;100.00;95625.94;5046700;28;24538;-75
2022/08/19 09:38:30;;;;;;;17.90;13.70;;;;;;;20.08;100.00;95634.88;5038496;28;24436;-75
2022/08/19 09:40:57;;;;;;;18.20;12.57;;;;;;;20.15;100.00;95631.47;5046122;28;25011;-75
2022/08/19 09:43:26;;;;;;;19.17;13.50;;;;;;;19.91;100.00;95633.97;5044167;28;24993;-74
2022/08/19 09:45:53;;;;;;;15.20;12.02;;;;;;;20.03;100.00;95638.00;5050658;28;24439;-74
2022/08/19 09:48:21;;;;;;;12.80;11.50;;;;;;;19.90;100.00;95640.22;5050021;28;24438;-75
2022/08/19 09:50:47;;;;;;;19.73;12.10;;;;;;;20.02;100.00;95642.44;5045842;28;24540;-75
2022/08/19 09:53:14;;;;;;;14.32;11.10;;;;;;;19.98;100.00;95651.59;5047576;28;24442;-75
2022/08/19 09:55:43;;;;;;;12.93;10.98;;;;;;;20.20;100.00;95652.03;5050737;28;24442;-74
2022/08/19 09:58:09;;;;;;;15.10;10.77;;;;;;;20.31;100.00;95649.09;5038742;28;24432;-75
2022/08/19 10:00:38;;;;;;;15.30;11.35;;;;;;;20.29;100.00;95638.75;5050053;28;24799;-74
2022/08/19 10:03:05;;;;;;;15.77;12.75;;;;;;;20.08;100.00;95645.41;5037189;28;24502;-75
2022/08/19 10:05:50;;;;;;;16.95;12.80;;;;;;;20.41;100.00;95655.06;5044025;28;24461;-75
2022/08/19 10:08:20;;;;;;;13.13;10.43;;;;;;;20.18;100.00;95649.56;5042577;28;25019;-75
2022/08/19 10:10:48;;;;;;;20.83;11.48;;;;;;;20.27;100.00;95658.28;5041988;28;24822;-75
2022/08/19 10:13:16;;;;;;;13.88;11.20;;;;;;;20.51;100.00;95658.41;5041385;28;24431;-75
2022/08/19 10:15:43;;;;;;;12.00;10.70;;;;;;;20.43;100.00;95652.25;5042795;28;24450;-74
2022/08/19 10:18:10;;;;;;;12.80;11.37;;;;;;;20.48;100.00;95650.81;5039696;28;24443;-76
2022/08/19 10:20:38;;;;;;;12.57;11.10;;;;;;;20.50;100.00;95650.66;5048330;28;24554;-75
2022/08/19 10:23:05;;;;;;;16.20;10.52;;;;;;;20.68;100.00;95647.91;5045873;28;24993;-75
2022/08/19 10:25:33;;;;;;;12.70;9.57;;;;;;;20.68;100.00;95645.28;5048005;28;24496;-75
2022/08/19 10:28:00;;;;;;;15.55;11.13;;;;;;;20.62;98.33;95645.97;5040166;28;24440;-75
2022/08/19 10:30:27;;;;;;;12.68;10.68;;;;;;;20.63;98.33;95643.16;5044175;28;24826;-75
2022/08/19 10:32:53;;;;;;;10.98;9.65;;;;;;;20.71;98.62;95640.53;5043336;28;24439;-75
2022/08/19 10:35:20;;;;;;;12.07;9.02;;;;;;;20.74;98.84;95634.13;5034749;28;25008;-75
2022/08/19 10:37:48;;;;;;;10.47;9.03;;;;;;;20.79;97.30;95639.72;5049340;28;24997;-74
2022/08/19 10:40:14;;;;;;;11.83;8.67;;;;;;;20.82;95.22;95634.13;5048634;28;24447;-74
2022/08/19 10:42:41;;;;;;;9.45;7.88;;;;;;;20.91;93.81;95640.22;5048910;28;24506;-74
2022/08/19 10:45:09;;;;;;;11.13;7.80;;;;;;;20.91;93.49;95633.16;5047938;28;24447;-73
2022/08/19 10:47:36;;;;;;;9.05;7.63;;;;;;;21.03;93.01;95639.75;5045756;28;24446;-73
2022/08/19 10:52:50;;;;;;;9.07;6.70;;;;;;;20.93;93.44;95628.53;5044625;28;24542;-76
2022/08/19 10:58:03;;;;;;;7.20;6.50;;;;;;;21.15;91.56;95616.53;5046269;28;24439;-76
2022/08/19 11:00:30;;;;;;;7.05;5.55;;;;;;;21.07;92.01;95619.19;5043949;28;24442;-76
2022/08/19 11:02:57;;;;;;;9.63;5.97;;;;;;;21.08;90.95;95622.63;5045030;28;24542;-75
2022/08/19 11:05:23;;;;;;;8.10;6.50;;;;;;;21.06;90.70;95619.31;5049480;28;24527;-75
2022/08/19 11:07:51;;;;;;;9.00;6.53;;;;;;;20.90;89.43;95620.97;5044805;28;24438;-75
2022/08/19 11:10:18;;;;;;;10.35;7.82;;;;;;;20.92;89.08;95616.38;5047914;28;24817;-75
2022/08/19 11:12:47;;;;;;;7.93;6.90;;;;;;;20.96;89.04;95622.13;5047730;28;24439;-75
2022/08/19 11:15:13;;;;;;;9.88;7.07;;;;;;;21.18;88.62;95612.75;5048120;28;24548;-75
2022/08/19 11:17:43;;;;;;;8.90;6.72;;;;;;;21.14;88.96;95611.44;5045707;28;25015;-75
2022/08/19 11:20:11;;;;;;;7.95;6.63;;;;;;;21.14;88.35;95604.38;5048234;28;24435;-75
2022/08/19 11:22:38;;;;;;;7.07;6.05;;;;;;;21.21;88.24;95605.34;5047411;28;24432;-76
2022/08/19 11:25:08;;;;;;;8.98;6.57;;;;;;;21.28;86.78;95618.66;5047011;28;24447;-75
2022/08/19 11:27:34;;;;;;;6.97;5.82;;;;;;;21.29;87.54;95611.59;5045447;28;24431;-76
2022/08/19 11:30:03;;;;;;;8.38;6.60;;;;;;;21.30;84.58;95610.59;5041513;28;24470;-75
2022/08/19 11:32:29;;;;;;;7.28;5.88;;;;;;;21.21;85.15;95605.34;5046030;28;25005;-75
2022/08/19 11:34:56;;;;;;;8.15;6.00;;;;;;;21.32;85.08;95611.25;5048554;28;24446;-75
2022/08/19 11:37:22;;;;;;;6.07;5.38;;;;;;;21.40;84.31;95619.19;5045806;28;24443;-75